sensor_id;sensor_type;location;lat;lon;timestamp;P1;durP1;ratioP1;P2;durP2;ratioP2
3979;SDS011;2004;52.452;13.120;2023-09-18T00:06:31;167.77;;;14.87;;
3979;SDS011;2004;52.452;13.120;2023-09-18T00:14:22;167.67;;;13.70;;
3979;SDS011;2004;52.452;13.120;2023-09-18T00:22:13;170.07;;;15.17;;
3979;SDS011;2004;52.452;13.120;2023-09-18T00:30:04;170.37;;;14.30;;
3979;SDS011;2004;52.452;13.120;2023-09-18T00:37:56;167.57;;;14.10;;
3979;SDS011;2004;52.452;13.120;2023-09-18T00:45:47;167.07;;;14.13;;
3979;SDS011;2004;52.452;13.120;2023-09-18T00:53:42;166.60;;;14.20;;
3979;SDS011;2004;52.452;13.120;2023-09-18T01:01:34;165.57;;;13.03;;
3979;SDS011;2004;52.452;13.120;2023-09-18T01:09:25;169.57;;;14.37;;
3979;SDS011;2004;52.452;13.120;2023-09-18T01:17:15;168.87;;;14.03;;
3979;SDS011;2004;52.452;13.120;2023-09-18T01:25:06;175.10;;;13.57;;
3979;SDS011;2004;52.452;13.120;2023-09-18T01:32:57;171.97;;;14.57;;
3979;SDS011;2004;52.452;13.120;2023-09-18T01:40:50;168.80;;;14.33;;
3979;SDS011;2004;52.452;13.120;2023-09-18T01:48:46;169.97;;;14.40;;
3979;SDS011;2004;52.452;13.120;2023-09-18T01:56:37;173.57;;;14.07;;
3979;SDS011;2004;52.452;13.120;2023-09-18T02:04:28;175.20;;;15.30;;
3979;SDS011;2004;52.452;13.120;2023-09-18T02:12:18;168.00;;;13.40;;
3979;SDS011;2004;52.452;13.120;2023-09-18T02:20:10;171.40;;;13.60;;
3979;SDS011;2004;52.452;13.120;2023-09-18T02:28:01;167.67;;;13.67;;
3979;SDS011;2004;52.452;13.120;2023-09-18T02:35:52;170.47;;;14.43;;
3979;SDS011;2004;52.452;13.120;2023-09-18T02:43:42;168.77;;;13.90;;
3979;SDS011;2004;52.452;13.120;2023-09-18T02:51:33;167.60;;;14.23;;
3979;SDS011;2004;52.452;13.120;2023-09-18T02:59:23;170.80;;;15.00;;
3979;SDS011;2004;52.452;13.120;2023-09-18T03:07:14;169.87;;;13.50;;
3979;SDS011;2004;52.452;13.120;2023-09-18T03:15:06;169.47;;;13.80;;
3979;SDS011;2004;52.452;13.120;2023-09-18T03:22:58;168.90;;;13.47;;
3979;SDS011;2004;52.452;13.120;2023-09-18T03:30:50;167.43;;;13.27;;
3979;SDS011;2004;52.452;13.120;2023-09-18T03:38:40;169.30;;;13.50;;
3979;SDS011;2004;52.452;13.120;2023-09-18T03:46:31;167.10;;;13.60;;
3979;SDS011;2004;52.452;13.120;2023-09-18T03:54:21;167.20;;;13.03;;
3979;SDS011;2004;52.452;13.120;2023-09-18T04:02:12;168.43;;;13.20;;
3979;SDS011;2004;52.452;13.120;2023-09-18T04:10:02;169.87;;;13.97;;
3979;SDS011;2004;52.452;13.120;2023-09-18T04:17:53;167.90;;;13.47;;
3979;SDS011;2004;52.452;13.120;2023-09-18T04:25:44;169.00;;;12.83;;
3979;SDS011;2004;52.452;13.120;2023-09-18T04:33:35;177.53;;;14.63;;
3979;SDS011;2004;52.452;13.120;2023-09-18T04:41:26;167.80;;;13.13;;
3979;SDS011;2004;52.452;13.120;2023-09-18T04:49:17;171.13;;;14.33;;
3979;SDS011;2004;52.452;13.120;2023-09-18T04:57:07;168.57;;;13.47;;
3979;SDS011;2004;52.452;13.120;2023-09-18T05:04:58;168.13;;;12.90;;
3979;SDS011;2004;52.452;13.120;2023-09-18T05:12:48;169.17;;;13.80;;
3979;SDS011;2004;52.452;13.120;2023-09-18T05:20:40;167.47;;;13.77;;
3979;SDS011;2004;52.452;13.120;2023-09-18T05:28:31;171.53;;;15.63;;
3979;SDS011;2004;52.452;13.120;2023-09-18T05:36:21;171.00;;;14.33;;
3979;SDS011;2004;52.452;13.120;2023-09-18T05:44:12;169.87;;;13.80;;
3979;SDS011;2004;52.452;13.120;2023-09-18T05:52:02;179.47;;;16.47;;
3979;SDS011;2004;52.452;13.120;2023-09-18T05:59:56;173.47;;;15.50;;
3979;SDS011;2004;52.452;13.120;2023-09-18T06:07:50;177.07;;;14.40;;
3979;SDS011;2004;52.452;13.120;2023-09-18T06:15:41;168.50;;;14.63;;
3979;SDS011;2004;52.452;13.120;2023-09-18T06:23:31;170.47;;;14.70;;
3979;SDS011;2004;52.452;13.120;2023-09-18T06:31:22;171.27;;;14.70;;
3979;SDS011;2004;52.452;13.120;2023-09-18T06:39:13;171.87;;;15.33;;
3979;SDS011;2004;52.452;13.120;2023-09-18T06:47:05;171.40;;;14.30;;
3979;SDS011;2004;52.452;13.120;2023-09-18T06:54:55;173.57;;;15.57;;
3979;SDS011;2004;52.452;13.120;2023-09-18T07:02:47;173.17;;;15.83;;
3979;SDS011;2004;52.452;13.120;2023-09-18T07:10:39;168.07;;;13.60;;
3979;SDS011;2004;52.452;13.120;2023-09-18T07:18:30;168.63;;;14.20;;
3979;SDS011;2004;52.452;13.120;2023-09-18T07:26:20;175.27;;;13.37;;
3979;SDS011;2004;52.452;13.120;2023-09-18T07:34:11;166.63;;;12.80;;
3979;SDS011;2004;52.452;13.120;2023-09-18T07:42:01;165.60;;;12.47;;
3979;SDS011;2004;52.452;13.120;2023-09-18T07:49:52;168.47;;;13.07;;
3979;SDS011;2004;52.452;13.120;2023-09-18T07:57:44;164.67;;;13.07;;
3979;SDS011;2004;52.452;13.120;2023-09-18T08:05:35;164.87;;;12.27;;
3979;SDS011;2004;52.452;13.120;2023-09-18T08:13:26;165.67;;;12.20;;
3979;SDS011;2004;52.452;13.120;2023-09-18T08:21:16;163.30;;;11.80;;
3979;SDS011;2004;52.452;13.120;2023-09-18T08:29:07;165.27;;;11.47;;
3979;SDS011;2004;52.452;13.120;2023-09-18T08:36:57;161.33;;;12.17;;
3979;SDS011;2004;52.452;13.120;2023-09-18T08:44:48;160.67;;;10.77;;
3979;SDS011;2004;52.452;13.120;2023-09-18T08:52:41;162.70;;;11.63;;
3979;SDS011;2004;52.452;13.120;2023-09-18T09:00:33;162.83;;;11.10;;
3979;SDS011;2004;52.452;13.120;2023-09-18T09:08:29;161.33;;;10.93;;
3979;SDS011;2004;52.452;13.120;2023-09-18T09:16:19;161.27;;;10.10;;
3979;SDS011;2004;52.452;13.120;2023-09-18T09:24:10;164.07;;;10.13;;
3979;SDS011;2004;52.452;13.120;2023-09-18T09:32:14;159.47;;;10.07;;
3979;SDS011;2004;52.452;13.120;2023-09-18T09:40:04;162.57;;;10.90;;
3979;SDS011;2004;52.452;13.120;2023-09-18T09:47:59;163.10;;;9.97;;
3979;SDS011;2004;52.452;13.120;2023-09-18T09:55:54;160.23;;;11.87;;
3979;SDS011;2004;52.452;13.120;2023-09-18T10:03:45;165.97;;;12.00;;
3979;SDS011;2004;52.452;13.120;2023-09-18T10:11:38;158.27;;;10.67;;
3979;SDS011;2004;52.452;13.120;2023-09-18T10:19:32;158.57;;;10.90;;
3979;SDS011;2004;52.452;13.120;2023-09-18T10:27:50;157.47;;;10.37;;
3979;SDS011;2004;52.452;13.120;2023-09-18T10:35:43;163.80;;;10.07;;
3979;SDS011;2004;52.452;13.120;2023-09-18T10:43:37;156.53;;;10.17;;
3979;SDS011;2004;52.452;13.120;2023-09-18T10:51:28;163.10;;;11.07;;
3979;SDS011;2004;52.452;13.120;2023-09-18T10:59:19;157.53;;;10.20;;
3979;SDS011;2004;52.452;13.120;2023-09-18T11:07:23;157.97;;;10.30;;
3979;SDS011;2004;52.452;13.120;2023-09-18T11:15:33;166.10;;;9.63;;
3979;SDS011;2004;52.452;13.120;2023-09-18T11:23:24;155.60;;;9.23;;
3979;SDS011;2004;52.452;13.120;2023-09-18T11:31:41;154.77;;;9.00;;
3979;SDS011;2004;52.452;13.120;2023-09-18T11:39:34;155.70;;;9.83;;
3979;SDS011;2004;52.452;13.120;2023-09-18T11:47:31;155.77;;;9.00;;
3979;SDS011;2004;52.452;13.120;2023-09-18T11:55:22;159.97;;;9.00;;
3979;SDS011;2004;52.452;13.120;2023-09-18T12:03:13;156.80;;;8.70;;
3979;SDS011;2004;52.452;13.120;2023-09-18T12:11:17;154.03;;;9.00;;
3979;SDS011;2004;52.452;13.120;2023-09-18T12:19:15;161.50;;;15.40;;
3979;SDS011;2004;52.452;13.120;2023-09-18T12:27:06;155.27;;;8.97;;
3979;SDS011;2004;52.452;13.120;2023-09-18T12:34:57;156.87;;;8.60;;
3979;SDS011;2004;52.452;13.120;2023-09-18T12:42:49;155.47;;;9.13;;
3979;SDS011;2004;52.452;13.120;2023-09-18T12:50:41;157.70;;;9.40;;
3979;SDS011;2004;52.452;13.120;2023-09-18T12:58:32;156.67;;;9.40;;
3979;SDS011;2004;52.452;13.120;2023-09-18T13:06:22;164.67;;;10.63;;
3979;SDS011;2004;52.452;13.120;2023-09-18T13:14:14;162.67;;;10.17;;
3979;SDS011;2004;52.452;13.120;2023-09-18T13:22:04;157.90;;;10.17;;
3979;SDS011;2004;52.452;13.120;2023-09-18T13:29:55;154.93;;;9.50;;
3979;SDS011;2004;52.452;13.120;2023-09-18T13:37:46;163.07;;;11.90;;
3979;SDS011;2004;52.452;13.120;2023-09-18T13:45:36;164.77;;;11.87;;
3979;SDS011;2004;52.452;13.120;2023-09-18T13:53:27;159.03;;;10.60;;
3979;SDS011;2004;52.452;13.120;2023-09-18T14:01:18;163.37;;;11.33;;
3979;SDS011;2004;52.452;13.120;2023-09-18T14:09:08;160.13;;;10.80;;
3979;SDS011;2004;52.452;13.120;2023-09-18T14:17:00;158.87;;;9.43;;
3979;SDS011;2004;52.452;13.120;2023-09-18T14:24:52;162.47;;;9.60;;
3979;SDS011;2004;52.452;13.120;2023-09-18T14:32:43;157.30;;;8.20;;
3979;SDS011;2004;52.452;13.120;2023-09-18T14:40:34;158.13;;;8.77;;
3979;SDS011;2004;52.452;13.120;2023-09-18T14:48:24;157.90;;;8.70;;
3979;SDS011;2004;52.452;13.120;2023-09-18T14:56:15;160.67;;;8.23;;
3979;SDS011;2004;52.452;13.120;2023-09-18T15:04:06;160.57;;;9.27;;
3979;SDS011;2004;52.452;13.120;2023-09-18T15:11:56;169.83;;;9.70;;
3979;SDS011;2004;52.452;13.120;2023-09-18T15:19:47;159.67;;;8.83;;
3979;SDS011;2004;52.452;13.120;2023-09-18T15:27:42;161.53;;;8.47;;
3979;SDS011;2004;52.452;13.120;2023-09-18T15:35:33;163.37;;;8.90;;
3979;SDS011;2004;52.452;13.120;2023-09-18T15:43:24;162.63;;;9.57;;
3979;SDS011;2004;52.452;13.120;2023-09-18T15:51:16;160.63;;;9.73;;
3979;SDS011;2004;52.452;13.120;2023-09-18T15:59:07;162.33;;;10.73;;
3979;SDS011;2004;52.452;13.120;2023-09-18T16:06:58;170.27;;;11.13;;
3979;SDS011;2004;52.452;13.120;2023-09-18T16:14:49;162.93;;;9.70;;
3979;SDS011;2004;52.452;13.120;2023-09-18T16:22:39;164.10;;;10.80;;
3979;SDS011;2004;52.452;13.120;2023-09-18T16:30:32;175.40;;;12.23;;
3979;SDS011;2004;52.452;13.120;2023-09-18T16:38:23;174.10;;;12.03;;
3979;SDS011;2004;52.452;13.120;2023-09-18T16:46:14;167.53;;;12.53;;
3979;SDS011;2004;52.452;13.120;2023-09-18T16:54:05;165.40;;;11.20;;
3979;SDS011;2004;52.452;13.120;2023-09-18T17:01:56;166.27;;;12.17;;
3979;SDS011;2004;52.452;13.120;2023-09-18T17:09:47;166.50;;;12.67;;
3979;SDS011;2004;52.452;13.120;2023-09-18T17:17:37;166.53;;;11.43;;
3979;SDS011;2004;52.452;13.120;2023-09-18T17:25:28;166.27;;;11.30;;
3979;SDS011;2004;52.452;13.120;2023-09-18T17:33:18;174.20;;;11.90;;
3979;SDS011;2004;52.452;13.120;2023-09-18T17:41:09;166.20;;;11.63;;
3979;SDS011;2004;52.452;13.120;2023-09-18T17:49:00;164.00;;;11.27;;
3979;SDS011;2004;52.452;13.120;2023-09-18T17:56:51;165.17;;;11.77;;
3979;SDS011;2004;52.452;13.120;2023-09-18T18:04:41;162.63;;;10.53;;
3979;SDS011;2004;52.452;13.120;2023-09-18T18:12:37;164.20;;;10.67;;
3979;SDS011;2004;52.452;13.120;2023-09-18T18:20:29;165.83;;;10.60;;
3979;SDS011;2004;52.452;13.120;2023-09-18T18:28:19;165.10;;;9.90;;
3979;SDS011;2004;52.452;13.120;2023-09-18T18:36:10;160.93;;;10.07;;
3979;SDS011;2004;52.452;13.120;2023-09-18T18:44:02;157.20;;;8.80;;
3979;SDS011;2004;52.452;13.120;2023-09-18T18:51:52;164.73;;;10.57;;
3979;SDS011;2004;52.452;13.120;2023-09-18T18:59:43;164.90;;;9.57;;
3979;SDS011;2004;52.452;13.120;2023-09-18T19:07:35;160.77;;;9.80;;
3979;SDS011;2004;52.452;13.120;2023-09-18T19:15:27;161.17;;;9.93;;
3979;SDS011;2004;52.452;13.120;2023-09-18T19:23:17;161.87;;;10.20;;
3979;SDS011;2004;52.452;13.120;2023-09-18T19:31:08;163.90;;;9.83;;
3979;SDS011;2004;52.452;13.120;2023-09-18T19:38:58;163.87;;;9.93;;
3979;SDS011;2004;52.452;13.120;2023-09-18T19:46:49;165.47;;;10.10;;
3979;SDS011;2004;52.452;13.120;2023-09-18T19:54:41;167.07;;;12.17;;
3979;SDS011;2004;52.452;13.120;2023-09-18T20:02:31;165.67;;;10.57;;
3979;SDS011;2004;52.452;13.120;2023-09-18T20:10:26;160.77;;;10.30;;
3979;SDS011;2004;52.452;13.120;2023-09-18T20:18:18;162.97;;;10.20;;
3979;SDS011;2004;52.452;13.120;2023-09-18T20:26:09;163.30;;;10.00;;
3979;SDS011;2004;52.452;13.120;2023-09-18T20:33:59;162.13;;;10.00;;
3979;SDS011;2004;52.452;13.120;2023-09-18T20:41:50;165.10;;;11.73;;
3979;SDS011;2004;52.452;13.120;2023-09-18T20:49:42;168.77;;;11.73;;
3979;SDS011;2004;52.452;13.120;2023-09-18T20:57:38;163.30;;;9.60;;
3979;SDS011;2004;52.452;13.120;2023-09-18T21:05:28;166.80;;;10.07;;
3979;SDS011;2004;52.452;13.120;2023-09-18T21:13:19;163.07;;;9.87;;
3979;SDS011;2004;52.452;13.120;2023-09-18T21:21:09;161.80;;;9.27;;
3979;SDS011;2004;52.452;13.120;2023-09-18T21:29:00;165.67;;;9.63;;
3979;SDS011;2004;52.452;13.120;2023-09-18T21:36:51;167.73;;;10.27;;
3979;SDS011;2004;52.452;13.120;2023-09-18T21:44:42;166.80;;;10.30;;
3979;SDS011;2004;52.452;13.120;2023-09-18T21:52:32;166.70;;;9.43;;
3979;SDS011;2004;52.452;13.120;2023-09-18T22:00:23;167.77;;;9.67;;
3979;SDS011;2004;52.452;13.120;2023-09-18T22:08:20;161.93;;;9.10;;
3979;SDS011;2004;52.452;13.120;2023-09-18T22:16:11;167.50;;;9.20;;
3979;SDS011;2004;52.452;13.120;2023-09-18T22:24:03;163.07;;;8.40;;
3979;SDS011;2004;52.452;13.120;2023-09-18T22:31:54;170.17;;;9.60;;
3979;SDS011;2004;52.452;13.120;2023-09-18T22:56:18;163.50;;;8.90;;
3979;SDS011;2004;52.452;13.120;2023-09-18T23:04:09;167.83;;;8.47;;
3979;SDS011;2004;52.452;13.120;2023-09-18T23:12:03;165.40;;;8.87;;
3979;SDS011;2004;52.452;13.120;2023-09-18T23:19:57;170.27;;;9.07;;
3979;SDS011;2004;52.452;13.120;2023-09-18T23:27:49;162.93;;;8.80;;
3979;SDS011;2004;52.452;13.120;2023-09-18T23:35:42;168.20;;;9.47;;
3979;SDS011;2004;52.452;13.120;2023-09-18T23:43:33;165.33;;;9.03;;
3979;SDS011;2004;52.452;13.120;2023-09-18T23:51:26;165.40;;;8.30;;
3979;SDS011;2004;52.452;13.120;2023-09-18T23:59:17;170.77;;;9.00;;
